createdAt,value
2019-05-20T00:00:20.700Z,87.80
2019-05-20T00:05:39.692Z,87.30
2019-05-20T00:10:52.374Z,87.50
2019-05-20T00:16:03.507Z,87.30
2019-05-20T00:21:12.563Z,87.40
2019-05-20T00:26:42.586Z,87.50
2019-05-20T00:31:58.919Z,87.30
2019-05-20T00:37:09.210Z,87.40
2019-05-20T00:42:23.883Z,86.90
2019-05-20T00:47:31.765Z,87.10
2019-05-20T00:52:40.474Z,86.00
2019-05-20T00:57:48.992Z,85.80
2019-05-20T01:02:58.309Z,85.00
2019-05-20T01:08:07.030Z,85.00
2019-05-20T01:13:15.749Z,84.70
2019-05-20T01:18:28.881Z,84.60
2019-05-20T01:23:37.741Z,84.70
2019-05-20T01:28:46.503Z,84.10
2019-05-20T01:33:55.671Z,83.30
2019-05-20T01:39:05.965Z,83.90
2019-05-20T01:44:15.750Z,83.70
2019-05-20T01:49:26.401Z,83.20
2019-05-20T01:54:35.370Z,82.60
2019-05-20T01:59:45.064Z,83.00
2019-05-20T02:04:54.986Z,81.10
2019-05-20T02:10:03.970Z,81.30
2019-05-20T02:15:15.437Z,81.00
2019-05-20T02:20:24.678Z,81.10
2019-05-20T02:25:36.347Z,80.40
2019-05-20T02:36:18.366Z,78.80
2019-05-20T02:41:29.668Z,77.90
2019-05-20T02:46:49.047Z,77.90
2019-05-20T02:51:59.842Z,76.80
2019-05-20T02:57:09.818Z,78.00
2019-05-20T03:02:29.182Z,75.70
2019-05-20T03:07:39.725Z,76.20
2019-05-20T03:12:48.439Z,76.30
2019-05-20T03:17:56.731Z,77.20
2019-05-20T03:23:06.463Z,76.20
2019-05-20T03:28:18.160Z,76.90
2019-05-20T03:33:39.665Z,75.20
2019-05-20T03:38:48.936Z,76.40
2019-05-20T03:43:58.785Z,76.00
2019-05-20T03:49:17.601Z,74.10
2019-05-20T03:54:28.273Z,73.30
2019-05-20T03:59:37.575Z,74.40
2019-05-20T04:05:02.374Z,74.80
2019-05-20T04:10:14.103Z,73.70
2019-05-20T04:15:28.171Z,73.00
2019-05-20T04:20:35.772Z,72.60
2019-05-20T04:25:43.973Z,70.40
2019-05-20T04:30:52.711Z,71.90
2019-05-20T04:36:04.169Z,71.80
2019-05-20T04:41:15.832Z,69.80
2019-05-20T04:46:24.733Z,70.20
2019-05-20T04:51:33.188Z,68.20
2019-05-20T04:56:41.617Z,67.70
2019-05-20T05:01:50.434Z,67.40
2019-05-20T05:06:59.727Z,66.70
2019-05-20T05:12:11.621Z,65.50
2019-05-20T05:17:19.478Z,64.40
2019-05-20T05:22:28.247Z,64.40
2019-05-20T05:27:36.774Z,64.20
2019-05-20T05:32:49.264Z,65.40
2019-05-20T05:38:00.380Z,65.50
2019-05-20T05:43:09.708Z,65.90
2019-05-20T05:48:18.402Z,65.50
2019-05-20T05:53:26.866Z,63.50
2019-05-20T05:58:35.473Z,64.20
2019-05-20T06:03:44.178Z,64.80
2019-05-20T06:08:53.346Z,64.30
2019-05-20T06:14:04.975Z,62.20
2019-05-20T06:19:12.972Z,61.40
2019-05-20T06:24:25.184Z,62.00
2019-05-20T06:29:33.772Z,59.70
2019-05-20T06:34:43.199Z,60.90
2019-05-20T06:39:51.630Z,60.20
2019-05-20T06:44:59.980Z,59.70
2019-05-20T06:50:12.812Z,59.90
2019-05-20T06:55:22.061Z,60.30
2019-05-20T07:00:36.816Z,57.60
2019-05-20T07:05:50.065Z,59.40
2019-05-20T07:10:58.063Z,58.80
2019-05-20T07:16:07.251Z,57.90
2019-05-20T07:21:16.698Z,59.00
2019-05-20T07:26:28.662Z,59.80
2019-05-20T07:31:36.901Z,58.70
2019-05-20T07:37:01.479Z,58.30
2019-05-20T07:41:57.389Z,59.50
2019-05-20T07:47:12.063Z,58.60
2019-05-20T07:52:21.128Z,58.50
2019-05-20T07:57:31.505Z,59.10
2019-05-20T08:02:39.983Z,59.20
2019-05-20T08:07:52.440Z,61.00
2019-05-20T08:12:58.830Z,62.30
2019-05-20T08:18:25.978Z,62.60
2019-05-20T08:23:34.089Z,62.80
2019-05-20T08:28:47.259Z,61.10
2019-05-20T08:33:56.233Z,60.80
2019-05-20T08:39:09.361Z,62.40
2019-05-20T08:44:17.804Z,61.90
2019-05-20T08:49:26.610Z,62.10
2019-05-20T08:54:40.252Z,63.00
2019-05-20T08:59:47.993Z,62.50
2019-05-20T09:04:56.099Z,62.10
2019-05-20T09:10:05.008Z,62.00
2019-05-20T09:15:14.328Z,61.80
2019-05-20T09:20:23.314Z,60.40
2019-05-20T09:25:32.975Z,60.60
2019-05-20T09:30:42.521Z,59.70
2019-05-20T09:35:51.040Z,59.50
2019-05-20T09:41:00.134Z,59.00
2019-05-20T09:46:08.522Z,58.70
2019-05-20T09:51:17.190Z,59.40
2019-05-20T09:56:28.383Z,59.80
2019-05-20T10:01:39.785Z,58.70
2019-05-20T10:06:46.787Z,59.00
2019-05-20T10:11:55.498Z,59.00
2019-05-20T10:17:04.801Z,59.30
2019-05-20T10:22:13.126Z,59.70
2019-05-20T10:27:22.037Z,59.60
2019-05-20T10:32:30.786Z,59.60
2019-05-20T10:37:39.154Z,60.00
2019-05-20T10:42:47.150Z,59.90
2019-05-20T10:47:55.919Z,59.70
2019-05-20T10:53:05.427Z,60.30
2019-05-20T10:58:13.806Z,60.80
2019-05-20T11:03:22.289Z,61.10
2019-05-20T11:08:31.626Z,61.30
2019-05-20T11:13:39.736Z,61.20
2019-05-20T11:18:48.769Z,61.50
2019-05-20T11:23:57.559Z,61.70
2019-05-20T11:29:06.217Z,61.50
2019-05-20T11:34:15.785Z,61.90
2019-05-20T11:39:33.206Z,62.90
2019-05-20T11:44:35.731Z,63.70
2019-05-20T11:49:43.948Z,64.70
2019-05-20T11:54:52.487Z,65.40
2019-05-20T12:00:01.033Z,65.90
2019-05-20T12:05:10.593Z,66.00
2019-05-20T12:10:19.788Z,67.20
2019-05-20T12:15:29.013Z,66.60
2019-05-20T12:20:45.213Z,67.00
2019-05-20T12:25:53.614Z,67.30
2019-05-20T12:31:05.007Z,67.70
2019-05-20T12:36:15.379Z,67.70
2019-05-20T12:41:26.382Z,67.80
2019-05-20T12:46:35.563Z,68.00
2019-05-20T12:51:43.847Z,68.10
2019-05-20T12:56:52.506Z,68.10
2019-05-20T13:02:03.787Z,68.00
2019-05-20T13:07:12.601Z,68.10
2019-05-20T13:12:25.828Z,68.30
2019-05-20T13:17:44.893Z,68.40
2019-05-20T13:23:00.167Z,68.50
2019-05-20T13:28:07.755Z,69.10
2019-05-20T13:33:21.838Z,69.40
2019-05-20T13:38:32.591Z,69.40
2019-05-20T13:43:49.789Z,69.80
2019-05-20T13:48:59.697Z,70.20
2019-05-20T13:54:19.533Z,70.70
2019-05-20T13:59:18.147Z,71.50
2019-05-20T14:04:27.114Z,72.50
2019-05-20T14:09:36.689Z,72.90
2019-05-20T14:14:45.618Z,73.60
2019-05-20T14:19:53.607Z,75.00
2019-05-20T14:25:02.045Z,75.40
2019-05-20T14:30:12.026Z,75.10
2019-05-20T14:35:21.396Z,75.10
2019-05-20T14:40:30.351Z,74.80
2019-05-20T14:45:39.800Z,74.80
2019-05-20T14:50:47.825Z,74.70
2019-05-20T14:55:56.038Z,74.70
2019-05-20T15:01:04.185Z,74.30
2019-05-20T15:06:12.582Z,73.60
2019-05-20T15:11:35.625Z,73.80
2019-05-20T15:16:31.599Z,73.90
2019-05-20T15:21:40.463Z,74.80
2019-05-20T15:26:49.560Z,74.70
2019-05-20T15:31:57.897Z,74.70
2019-05-20T15:37:06.928Z,74.80
2019-05-20T15:42:14.846Z,74.80
2019-05-20T15:47:26.654Z,75.10
2019-05-20T15:52:36.573Z,75.90
2019-05-20T15:57:45.237Z,75.40
2019-05-20T16:02:53.684Z,75.60
2019-05-20T16:08:04.063Z,75.20
2019-05-20T16:13:12.608Z,75.20
2019-05-20T16:18:21.732Z,75.50
2019-05-20T16:23:30.464Z,75.80
2019-05-20T16:28:39.267Z,76.20
2019-05-20T16:33:47.297Z,76.50
2019-05-20T16:38:55.665Z,76.60
2019-05-20T16:44:05.891Z,76.40
2019-05-20T16:49:14.727Z,76.10
2019-05-20T16:54:25.046Z,76.30
2019-05-20T16:59:33.751Z,76.30
2019-05-20T17:04:41.987Z,76.00
2019-05-20T17:09:50.419Z,76.00
2019-05-20T17:14:59.769Z,76.30
2019-05-20T17:20:10.012Z,76.20
2019-05-20T17:25:22.645Z,76.60
2019-05-20T17:30:44.431Z,76.80
2019-05-20T17:35:41.104Z,76.30
2019-05-20T17:40:49.051Z,76.10
2019-05-20T17:45:57.532Z,76.20
2019-05-20T17:51:06.450Z,76.50
2019-05-20T17:56:15.203Z,77.00
2019-05-20T18:01:26.158Z,77.00
2019-05-20T18:06:34.406Z,77.00
2019-05-20T18:11:42.697Z,77.20
2019-05-20T18:17:14.102Z,77.60
2019-05-20T18:22:22.700Z,77.60
2019-05-20T18:27:31.532Z,77.60
2019-05-20T18:32:39.932Z,77.80
2019-05-20T18:37:48.410Z,78.00
2019-05-20T18:42:57.291Z,78.40
2019-05-20T18:48:05.739Z,78.30
2019-05-20T18:53:18.201Z,78.50
2019-05-20T18:58:26.412Z,79.40
2019-05-20T19:03:38.233Z,79.80
2019-05-20T19:08:47.068Z,80.40
2019-05-20T19:13:55.835Z,80.70
2019-05-20T19:19:04.646Z,80.70
2019-05-20T19:24:13.229Z,80.70
2019-05-20T19:29:21.406Z,81.00
2019-05-20T19:34:30.775Z,80.90
2019-05-20T19:40:00.435Z,80.50
2019-05-20T19:45:09.825Z,80.00
2019-05-20T19:50:20.958Z,80.10
2019-05-20T19:55:30.088Z,80.40
2019-05-20T20:00:39.277Z,80.40
2019-05-20T20:05:48.789Z,80.40
2019-05-20T20:10:57.814Z,80.60
2019-05-20T20:16:08.094Z,80.90
2019-05-20T20:21:16.446Z,81.10
2019-05-20T20:26:24.960Z,81.40
2019-05-20T20:31:33.536Z,82.00
2019-05-20T20:36:42.174Z,82.40
2019-05-20T20:41:51.233Z,82.60
2019-05-20T20:46:59.216Z,82.80
2019-05-20T20:52:08.193Z,83.00
2019-05-20T20:57:16.331Z,83.40
2019-05-20T21:02:24.133Z,83.90
2019-05-20T21:07:32.699Z,84.10
2019-05-20T21:12:40.892Z,84.00
2019-05-20T21:17:49.598Z,84.40
2019-05-20T21:23:02.605Z,84.10
2019-05-20T21:28:11.449Z,84.20
2019-05-20T21:33:19.766Z,84.70
2019-05-20T21:38:28.620Z,84.40
2019-05-20T21:43:36.819Z,84.70
2019-05-20T21:48:45.225Z,85.00
2019-05-20T21:53:53.816Z,84.90
2019-05-20T21:59:04.640Z,85.10
2019-05-20T22:04:12.412Z,85.30
2019-05-20T22:09:21.746Z,85.30
2019-05-20T22:14:34.267Z,85.80
2019-05-20T22:19:43.661Z,85.90
2019-05-20T22:24:53.109Z,86.30
2019-05-20T22:30:05.255Z,86.50
2019-05-20T22:35:14.820Z,86.60
2019-05-20T22:40:23.950Z,86.90
2019-05-20T22:45:33.004Z,87.10
2019-05-20T22:50:44.380Z,87.50
2019-05-20T22:55:53.067Z,88.40
2019-05-20T23:01:01.560Z,87.90
2019-05-20T23:06:32.562Z,87.80
2019-05-20T23:11:40.900Z,87.30
2019-05-20T23:16:49.421Z,87.30
2019-05-20T23:21:59.411Z,87.60
2019-05-20T23:27:10.014Z,87.00
2019-05-20T23:32:24.987Z,87.00
2019-05-20T23:37:37.073Z,87.90
2019-05-20T23:42:57.398Z,88.00
2019-05-20T23:48:06.204Z,87.60
2019-05-20T23:53:14.455Z,87.30
2019-05-20T23:58:23.095Z,86.40
